createdAt,value
2023-01-04T00:01:30.323Z,17.10
2023-01-04T00:03:57.328Z,17.09
2023-01-04T00:06:24.241Z,17.09
2023-01-04T00:08:51.125Z,17.08
2023-01-04T00:11:19.328Z,17.08
2023-01-04T00:13:46.888Z,17.07
2023-01-04T00:16:16.319Z,17.05
2023-01-04T00:18:43.670Z,17.05
2023-01-04T00:21:10.693Z,17.05
2023-01-04T00:23:38.914Z,17.02
2023-01-04T00:26:07.570Z,16.99
2023-01-04T00:28:34.449Z,17.00
2023-01-04T00:31:02.975Z,17.00
2023-01-04T00:33:29.821Z,16.99
2023-01-04T00:35:56.661Z,16.98
2023-01-04T00:38:23.619Z,16.97
2023-01-04T00:40:50.499Z,16.96
2023-01-04T00:43:17.351Z,16.95
2023-01-04T00:45:44.599Z,16.95
2023-01-04T00:48:11.436Z,16.93
2023-01-04T00:50:38.288Z,16.94
2023-01-04T00:53:05.154Z,16.92
2023-01-04T00:55:32.022Z,16.91
2023-01-04T00:57:59.019Z,16.90
2023-01-04T01:00:25.997Z,16.89
2023-01-04T01:02:52.975Z,16.89
2023-01-04T01:05:20.000Z,16.87
2023-01-04T01:07:46.906Z,16.87
2023-01-04T01:10:13.943Z,16.87
2023-01-04T01:12:40.801Z,16.86
2023-01-04T01:15:08.095Z,16.86
2023-01-04T01:17:35.168Z,16.84
2023-01-04T01:20:02.142Z,16.84
2023-01-04T01:22:29.142Z,16.83
2023-01-04T01:24:56.005Z,16.83
2023-01-04T01:27:22.970Z,16.82
2023-01-04T01:29:49.850Z,16.81
2023-01-04T01:32:16.661Z,16.80
2023-01-04T01:34:43.690Z,16.78
2023-01-04T01:37:10.807Z,16.78
2023-01-04T01:39:37.870Z,16.77
2023-01-04T01:42:04.931Z,16.77
2023-01-04T01:44:35.156Z,16.76
2023-01-04T01:47:02.547Z,16.77
2023-01-04T01:49:33.131Z,16.76
2023-01-04T01:52:02.456Z,16.75
2023-01-04T01:54:32.163Z,16.75
2023-01-04T01:57:00.757Z,16.74
2023-01-04T01:59:28.603Z,16.72
2023-01-04T02:01:55.811Z,16.73
2023-01-04T02:04:22.991Z,16.70
2023-01-04T02:06:52.494Z,16.70
2023-01-04T02:09:20.495Z,16.69
2023-01-04T02:11:47.590Z,16.69
2023-01-04T02:14:19.365Z,16.68
2023-01-04T02:16:49.454Z,16.67
2023-01-04T02:19:28.540Z,16.69
2023-01-04T02:21:55.947Z,16.67
2023-01-04T02:24:31.789Z,16.67
2023-01-04T02:27:00.244Z,16.67
2023-01-04T02:29:30.452Z,16.66
2023-01-04T02:32:01.004Z,16.65
2023-01-04T02:34:31.109Z,16.64
2023-01-04T02:37:00.690Z,16.64
2023-01-04T02:39:34.216Z,16.64
2023-01-04T02:42:04.319Z,16.64
2023-01-04T02:44:39.015Z,16.63
2023-01-04T02:47:09.211Z,16.62
2023-01-04T02:49:39.569Z,16.62
2023-01-04T02:52:06.611Z,16.60
2023-01-04T02:54:33.983Z,16.61
2023-01-04T02:57:05.913Z,16.61
2023-01-04T02:59:36.421Z,16.61
2023-01-04T03:02:15.071Z,16.60
2023-01-04T03:04:48.351Z,16.60
2023-01-04T03:07:25.276Z,16.59
2023-01-04T03:09:56.903Z,16.59
2023-01-04T03:12:29.300Z,16.58
2023-01-04T03:15:00.712Z,16.58
2023-01-04T03:17:30.409Z,16.57
2023-01-04T03:19:58.847Z,16.57
2023-01-04T03:22:32.117Z,16.57
2023-01-04T03:25:03.252Z,16.56
2023-01-04T03:27:33.314Z,16.56
2023-01-04T03:30:08.033Z,16.56
2023-01-04T03:32:45.952Z,16.55
2023-01-04T03:35:16.252Z,16.55
2023-01-04T03:37:43.653Z,16.55
2023-01-04T03:40:16.895Z,16.55
2023-01-04T03:42:50.023Z,16.53
2023-01-04T03:45:23.302Z,16.53
2023-01-04T03:47:56.514Z,16.53
2023-01-04T03:50:26.605Z,16.53
2023-01-04T03:52:54.341Z,16.52
2023-01-04T03:55:22.020Z,16.51
2023-01-04T03:57:49.548Z,16.52
2023-01-04T04:00:17.677Z,16.52
2023-01-04T04:02:46.394Z,16.51
2023-01-04T04:05:20.919Z,16.51
2023-01-04T04:07:51.203Z,16.51
2023-01-04T04:10:18.497Z,16.50
2023-01-04T04:12:45.511Z,16.49
2023-01-04T04:15:12.968Z,16.50
2023-01-04T04:17:40.024Z,16.50
2023-01-04T04:20:07.414Z,16.49
2023-01-04T04:22:34.671Z,16.49
2023-01-04T04:25:01.727Z,16.48
2023-01-04T04:27:28.777Z,16.50
2023-01-04T04:29:55.878Z,16.48
2023-01-04T04:32:23.253Z,16.49
2023-01-04T04:34:50.316Z,16.48
2023-01-04T04:37:17.390Z,16.48
2023-01-04T04:39:44.398Z,16.47
2023-01-04T04:42:11.435Z,16.46
2023-01-04T04:44:38.563Z,16.48
2023-01-04T04:47:06.315Z,16.46
2023-01-04T04:49:34.449Z,16.45
2023-01-04T04:52:01.522Z,16.44
2023-01-04T04:54:28.549Z,16.45
2023-01-04T04:56:55.600Z,16.46
2023-01-04T04:59:22.737Z,16.46
2023-01-04T05:01:50.017Z,16.44
2023-01-04T05:04:20.051Z,16.45
2023-01-04T05:06:47.791Z,16.44
2023-01-04T05:09:15.142Z,16.45
2023-01-04T05:11:45.898Z,16.44
2023-01-04T05:14:12.922Z,16.44
2023-01-04T05:16:40.200Z,16.43
2023-01-04T05:19:07.295Z,16.43
2023-01-04T05:21:34.421Z,16.43
2023-01-04T05:24:01.565Z,16.43
2023-01-04T05:26:28.697Z,16.43
2023-01-04T05:28:55.711Z,16.42
2023-01-04T05:31:22.958Z,16.43
2023-01-04T05:33:50.057Z,16.43
2023-01-04T05:36:17.514Z,16.41
2023-01-04T05:38:44.615Z,16.42
2023-01-04T05:41:14.694Z,16.41
2023-01-04T05:43:41.791Z,16.42
2023-01-04T05:46:08.898Z,16.40
2023-01-04T05:48:36.049Z,16.40
2023-01-04T05:51:03.080Z,16.41
2023-01-04T05:53:30.051Z,16.41
2023-01-04T05:55:57.113Z,16.39
2023-01-04T05:58:24.199Z,16.40
2023-01-04T06:00:51.376Z,16.39
2023-01-04T06:03:18.542Z,16.39
2023-01-04T06:05:49.353Z,16.40
2023-01-04T06:08:16.446Z,16.38
2023-01-04T06:10:43.655Z,16.38
2023-01-04T06:13:10.690Z,16.39
2023-01-04T06:15:42.780Z,16.39
2023-01-04T06:18:13.646Z,16.39
2023-01-04T06:20:41.200Z,16.39
2023-01-04T06:23:09.330Z,16.38
2023-01-04T06:25:36.377Z,16.38
2023-01-04T06:28:03.487Z,16.38
2023-01-04T06:30:30.643Z,16.39
2023-01-04T06:32:57.715Z,16.37
2023-01-04T06:35:24.818Z,16.39
2023-01-04T06:37:51.776Z,16.38
2023-01-04T06:40:18.878Z,16.39
2023-01-04T06:42:45.960Z,16.37
2023-01-04T06:45:13.612Z,16.38
2023-01-04T06:47:41.496Z,16.37
2023-01-04T06:50:08.950Z,16.36
2023-01-04T06:52:36.100Z,16.36
2023-01-04T06:55:03.239Z,16.36
2023-01-04T06:57:31.117Z,16.36
2023-01-04T06:59:58.297Z,16.36
2023-01-04T07:02:25.818Z,16.35
2023-01-04T07:04:53.036Z,16.35
2023-01-04T07:07:20.172Z,16.35
2023-01-04T07:09:47.234Z,16.35
2023-01-04T07:12:14.242Z,16.35
2023-01-04T07:14:41.337Z,16.35
2023-01-04T07:17:08.485Z,16.35
2023-01-04T07:19:35.547Z,16.34
2023-01-04T07:22:02.842Z,16.35
2023-01-04T07:24:30.776Z,16.35
2023-01-04T07:27:00.096Z,16.34
2023-01-04T07:29:27.794Z,16.34
2023-01-04T07:31:54.916Z,16.35
2023-01-04T07:34:23.758Z,16.34
2023-01-04T07:36:51.357Z,16.34
2023-01-04T07:39:19.021Z,16.35
2023-01-04T07:41:46.477Z,16.33
2023-01-04T07:44:13.546Z,16.33
2023-01-04T07:46:41.241Z,16.34
2023-01-04T07:49:16.627Z,16.34
2023-01-04T07:51:45.240Z,16.33
2023-01-04T07:54:12.453Z,16.33
2023-01-04T07:56:39.556Z,16.33
2023-01-04T07:59:07.842Z,16.33
2023-01-04T08:01:36.114Z,16.34
2023-01-04T08:04:03.224Z,16.32
2023-01-04T08:06:30.295Z,16.33
2023-01-04T08:08:58.313Z,16.33
2023-01-04T08:11:25.537Z,16.33
2023-01-04T08:13:52.743Z,16.32
2023-01-04T08:16:22.038Z,16.31
2023-01-04T08:18:53.012Z,16.31
2023-01-04T08:21:20.134Z,16.31
2023-01-04T08:23:48.082Z,16.31
2023-01-04T08:26:16.742Z,16.31
2023-01-04T08:28:44.039Z,16.32
2023-01-04T08:31:12.478Z,16.30
2023-01-04T08:33:39.772Z,16.31
2023-01-04T08:36:09.126Z,16.31
2023-01-04T08:41:56.098Z,16.31
2023-01-04T08:44:11.267Z,16.30
2023-01-04T08:46:39.083Z,16.30
2023-01-04T08:49:06.238Z,16.29
2023-01-04T08:51:33.298Z,16.29
2023-01-04T08:54:00.273Z,16.29
2023-01-04T08:56:27.373Z,16.30
2023-01-04T08:58:54.577Z,16.30
2023-01-04T09:01:21.530Z,16.29
2023-01-04T09:03:48.891Z,16.28
2023-01-04T09:06:16.418Z,16.28
2023-01-04T09:08:44.504Z,16.29
2023-01-04T09:11:12.925Z,16.29
2023-01-04T09:13:40.154Z,16.28
2023-01-04T09:16:08.338Z,16.28
2023-01-04T09:18:35.641Z,16.28
2023-01-04T09:21:05.751Z,16.28
2023-01-04T09:23:34.474Z,16.29
2023-01-04T09:26:09.478Z,16.28
2023-01-04T09:28:37.001Z,16.29
2023-01-04T09:31:07.122Z,16.27
2023-01-04T09:34:04.014Z,16.29
2023-01-04T09:36:21.836Z,16.28
2023-01-04T09:38:49.593Z,16.28
2023-01-04T09:41:19.825Z,16.27
2023-01-04T09:43:47.407Z,16.27
2023-01-04T09:46:17.650Z,16.27
2023-01-04T09:48:45.859Z,16.27
2023-01-04T09:51:15.370Z,16.26
2023-01-04T09:53:45.825Z,16.27
2023-01-04T09:56:16.822Z,16.27
2023-01-04T09:58:44.210Z,16.27
2023-01-04T10:01:15.635Z,16.27
2023-01-04T10:03:48.252Z,16.26
2023-01-04T10:06:16.142Z,16.27
2023-01-04T10:08:44.095Z,16.27
2023-01-04T10:11:19.869Z,16.26
2023-01-04T10:13:48.269Z,16.27
2023-01-04T10:16:30.362Z,16.26
2023-01-04T10:19:59.808Z,16.26
2023-01-04T10:21:56.899Z,16.27
2023-01-04T10:24:27.135Z,16.26
2023-01-04T10:26:59.935Z,16.26
2023-01-04T10:29:30.092Z,16.27
2023-01-04T10:32:03.780Z,16.27
2023-01-04T10:34:32.907Z,16.26
2023-01-04T10:37:01.373Z,16.26
2023-01-04T10:39:33.031Z,16.26
2023-01-04T10:42:07.417Z,16.26
2023-01-04T10:44:37.466Z,16.26
2023-01-04T10:47:08.982Z,16.25
2023-01-04T10:49:39.239Z,16.26
2023-01-04T10:52:11.109Z,16.26
2023-01-04T10:54:42.399Z,16.26
2023-01-04T10:57:13.104Z,16.27
2023-01-04T10:59:43.630Z,16.27
2023-01-04T11:02:12.271Z,16.25
2023-01-04T11:04:39.858Z,16.26
2023-01-04T11:07:09.995Z,16.25
2023-01-04T11:09:40.140Z,16.25
2023-01-04T11:12:09.277Z,16.25
2023-01-04T11:14:37.680Z,16.26
2023-01-04T11:17:06.232Z,16.24
2023-01-04T11:19:33.502Z,16.24
2023-01-04T11:22:01.142Z,16.25
2023-01-04T11:24:32.835Z,16.25
2023-01-04T11:27:03.492Z,16.25
2023-01-04T11:29:34.491Z,16.24
2023-01-04T11:32:05.279Z,16.24
2023-01-04T11:34:35.590Z,16.24
2023-01-04T11:37:02.742Z,16.25
2023-01-04T11:39:29.857Z,16.24
2023-01-04T11:42:03.891Z,16.24
2023-01-04T11:44:32.432Z,16.24
2023-01-04T11:47:02.627Z,16.24
2023-01-04T11:49:34.411Z,16.23
2023-01-04T11:52:03.504Z,16.24
2023-01-04T11:54:31.348Z,16.24
2023-01-04T11:57:02.072Z,16.25
2023-01-04T11:59:30.923Z,16.24
2023-01-04T12:02:02.269Z,16.24
2023-01-04T12:04:30.554Z,16.22
2023-01-04T12:07:05.482Z,16.23
2023-01-04T12:09:32.704Z,16.25
2023-01-04T12:12:00.978Z,16.24
2023-01-04T12:14:32.967Z,16.24
2023-01-04T12:17:03.173Z,16.24
2023-01-04T12:19:30.991Z,16.24
2023-01-04T12:22:00.047Z,16.24
2023-01-04T12:24:29.059Z,16.22
2023-01-04T12:26:56.695Z,16.24
2023-01-04T12:29:26.099Z,16.23
2023-01-04T12:31:54.289Z,16.23
2023-01-04T12:34:21.663Z,16.23
2023-01-04T12:36:49.070Z,16.24
2023-01-04T12:39:16.552Z,16.23
2023-01-04T12:42:00.898Z,16.24
2023-01-04T12:44:31.332Z,16.24
2023-01-04T12:47:01.494Z,16.24
2023-01-04T12:49:30.333Z,16.23
2023-01-04T12:52:30.233Z,16.24
2023-01-04T12:54:55.651Z,16.24
2023-01-04T12:57:35.051Z,16.23
2023-01-04T13:00:06.824Z,16.24
2023-01-04T13:02:36.791Z,16.22
2023-01-04T13:08:12.101Z,16.22
2023-01-04T13:10:43.439Z,16.23
2023-01-04T13:13:13.630Z,16.22
2023-01-04T13:15:43.785Z,16.23
2023-01-04T13:18:24.730Z,16.23
2023-01-04T13:20:51.834Z,16.21
2023-01-04T13:23:19.113Z,16.21
2023-01-04T13:25:47.878Z,16.22
2023-01-04T13:28:18.368Z,16.22
2023-01-04T13:30:46.053Z,16.22
2023-01-04T13:33:26.192Z,16.22
2023-01-04T13:35:57.868Z,16.21
2023-01-04T13:38:25.589Z,16.21
2023-01-04T13:40:52.723Z,16.21
2023-01-04T13:43:31.994Z,16.21
2023-01-04T13:46:06.719Z,16.21
2023-01-04T13:48:37.046Z,16.20
2023-01-04T13:51:07.181Z,16.20
2023-01-04T13:53:34.446Z,16.20
2023-01-04T13:56:02.761Z,16.20
2023-01-04T13:58:31.302Z,16.20
2023-01-04T14:01:00.785Z,16.20
2023-01-04T14:03:28.316Z,16.19
2023-01-04T14:06:01.366Z,16.18
2023-01-04T14:08:33.108Z,16.19
2023-01-04T14:11:00.333Z,16.17
2023-01-04T14:13:27.520Z,16.17
2023-01-04T14:15:57.858Z,16.18
2023-01-04T14:18:27.385Z,16.17
2023-01-04T14:20:54.610Z,16.18
2023-01-04T14:23:24.775Z,16.17
2023-01-04T14:25:56.873Z,16.16
2023-01-04T14:28:27.801Z,16.16
2023-01-04T14:30:55.424Z,16.17
2023-01-04T14:33:24.980Z,16.17
2023-01-04T14:35:55.110Z,16.16
2023-01-04T14:38:22.303Z,16.16
2023-01-04T14:40:49.382Z,16.15
2023-01-04T14:43:19.622Z,16.16
2023-01-04T14:45:47.863Z,16.16
2023-01-04T14:48:18.548Z,16.15
2023-01-04T14:50:51.431Z,16.15
2023-01-04T14:53:19.573Z,16.16
2023-01-04T14:55:46.786Z,16.15
2023-01-04T14:58:13.882Z,16.14
2023-01-04T15:00:41.818Z,16.14
2023-01-04T15:03:10.630Z,16.15
2023-01-04T15:05:38.213Z,16.15
2023-01-04T15:08:05.563Z,16.14
2023-01-04T15:10:32.612Z,16.15
2023-01-04T15:13:01.103Z,16.15
2023-01-04T15:15:28.095Z,16.15
2023-01-04T15:17:55.129Z,16.16
2023-01-04T15:20:22.605Z,16.14
2023-01-04T15:22:49.718Z,16.15
2023-01-04T15:25:16.822Z,16.14
2023-01-04T15:27:43.906Z,16.13
2023-01-04T15:30:11.797Z,16.13
2023-01-04T15:32:39.709Z,16.13
2023-01-04T15:35:07.335Z,16.13
2023-01-04T15:37:34.393Z,16.13
2023-01-04T15:40:03.225Z,16.12
2023-01-04T15:42:34.090Z,16.12
2023-01-04T15:45:01.258Z,16.11
2023-01-04T15:47:30.166Z,16.11
2023-01-04T15:49:57.292Z,16.11
2023-01-04T15:52:24.418Z,16.11
2023-01-04T15:54:51.591Z,16.09
2023-01-04T15:57:18.802Z,16.10
2023-01-04T15:59:46.964Z,16.09
2023-01-04T16:02:14.082Z,16.10
2023-01-04T16:04:41.238Z,16.09
2023-01-04T16:07:08.302Z,16.09
2023-01-04T16:09:37.272Z,16.09
2023-01-04T16:12:08.065Z,16.10
2023-01-04T16:14:35.212Z,16.09
2023-01-04T16:17:02.360Z,16.10
2023-01-04T16:19:32.634Z,16.09
2023-01-04T16:21:59.710Z,16.09
2023-01-04T16:25:08.761Z,16.09
2023-01-04T16:27:13.975Z,16.09
2023-01-04T16:29:41.095Z,16.08
2023-01-04T16:32:08.237Z,16.06
2023-01-04T16:34:35.826Z,16.07
2023-01-04T16:37:02.964Z,16.06
2023-01-04T16:42:17.094Z,16.06
2023-01-04T16:44:44.174Z,16.06
2023-01-04T16:47:11.321Z,16.06
2023-01-04T16:49:38.411Z,16.04
2023-01-04T16:52:10.819Z,16.05
2023-01-04T16:54:38.032Z,16.04
2023-01-04T16:57:05.166Z,16.04
2023-01-04T16:59:32.342Z,16.04
2023-01-04T17:01:59.563Z,16.03
2023-01-04T17:04:26.899Z,16.03
2023-01-04T17:06:55.748Z,16.03
2023-01-04T17:09:22.820Z,16.02
2023-01-04T17:14:39.993Z,16.02
2023-01-04T17:17:07.081Z,16.03
2023-01-04T17:19:34.117Z,16.02
2023-01-04T17:22:01.352Z,16.02
2023-01-04T17:24:28.393Z,16.02
2023-01-04T17:26:55.460Z,16.01
2023-01-04T17:29:22.579Z,16.00
2023-01-04T17:31:49.763Z,16.01
2023-01-04T17:34:22.481Z,16.01
2023-01-04T17:36:50.661Z,16.01
2023-01-04T17:39:19.689Z,16.00
2023-01-04T17:41:46.701Z,16.01
2023-01-04T17:44:13.813Z,16.00
2023-01-04T17:46:40.990Z,16.00
2023-01-04T17:49:30.890Z,16.00
2023-01-04T17:51:57.694Z,16.00
2023-01-04T17:54:26.084Z,15.99
2023-01-04T17:56:53.289Z,15.99
2023-01-04T17:59:20.436Z,15.99
2023-01-04T18:01:47.780Z,15.98
2023-01-04T18:04:15.053Z,15.98
2023-01-04T18:06:42.095Z,15.98
2023-01-04T18:09:09.597Z,15.98
2023-01-04T18:11:37.737Z,15.97
2023-01-04T18:14:09.657Z,15.98
2023-01-04T18:16:57.398Z,15.97
2023-01-04T18:19:27.229Z,15.97
2023-01-04T18:21:54.799Z,15.96
2023-01-04T18:24:38.595Z,15.98
2023-01-04T18:27:24.923Z,15.97
2023-01-04T18:29:53.338Z,15.96
2023-01-04T18:32:21.089Z,15.97
2023-01-04T18:34:49.079Z,15.97
2023-01-04T18:37:16.715Z,15.97
2023-01-04T18:39:44.239Z,15.97
2023-01-04T18:42:11.330Z,15.97
2023-01-04T18:44:44.193Z,15.97
2023-01-04T18:47:15.039Z,15.97
2023-01-04T18:49:42.126Z,15.96
2023-01-04T18:52:09.201Z,15.96
2023-01-04T18:54:36.247Z,15.95
2023-01-04T18:57:03.623Z,15.95
2023-01-04T18:59:30.880Z,15.95
2023-01-04T19:02:02.293Z,15.96
2023-01-04T19:04:30.926Z,15.95
2023-01-04T19:06:57.896Z,15.95
2023-01-04T19:09:25.035Z,15.94
2023-01-04T19:11:52.189Z,15.95
2023-01-04T19:14:19.266Z,15.94
2023-01-04T19:16:49.572Z,15.94
2023-01-04T19:19:16.660Z,15.94
2023-01-04T19:21:43.690Z,15.93
2023-01-04T19:24:11.193Z,15.94
2023-01-04T19:26:38.754Z,15.94
2023-01-04T19:29:07.768Z,15.93
2023-01-04T19:31:35.209Z,15.93
2023-01-04T19:34:02.910Z,15.93
2023-01-04T19:36:30.115Z,15.92
2023-01-04T19:38:57.911Z,15.92
2023-01-04T19:41:33.076Z,15.92
2023-01-04T19:44:04.139Z,15.92
2023-01-04T19:46:32.178Z,15.92
2023-01-04T19:48:59.496Z,15.92
2023-01-04T19:51:28.339Z,15.92
2023-01-04T19:53:55.503Z,15.91
2023-01-04T19:56:22.604Z,15.92
2023-01-04T19:58:49.849Z,15.92
2023-01-04T20:01:18.045Z,15.91
2023-01-04T20:03:45.678Z,15.92
2023-01-04T20:06:13.263Z,15.93
2023-01-04T20:08:41.143Z,15.94
2023-01-04T20:11:08.987Z,15.96
2023-01-04T20:13:36.353Z,16.00
2023-01-04T20:16:05.365Z,16.06
2023-01-04T20:18:32.914Z,16.12
2023-01-04T20:21:00.140Z,16.18
2023-01-04T20:23:27.370Z,16.23
2023-01-04T20:25:56.056Z,16.27
2023-01-04T20:28:24.482Z,16.30
2023-01-04T20:30:54.624Z,16.35
2023-01-04T20:33:21.632Z,16.39
2023-01-04T20:35:48.718Z,16.41
2023-01-04T20:38:15.751Z,16.45
2023-01-04T20:40:42.834Z,16.50
2023-01-04T20:43:12.989Z,16.53
2023-01-04T20:45:41.930Z,16.57
2023-01-04T20:48:09.159Z,16.60
2023-01-04T20:50:36.578Z,16.62
2023-01-04T20:53:03.865Z,16.66
2023-01-04T20:55:31.013Z,16.68
2023-01-04T20:57:58.074Z,16.71
2023-01-04T21:00:25.245Z,16.73
2023-01-04T21:02:52.571Z,16.77
2023-01-04T21:05:19.796Z,16.78
2023-01-04T21:07:46.917Z,16.80
2023-01-04T21:10:14.001Z,16.82
2023-01-04T21:12:41.029Z,16.83
2023-01-04T21:15:08.377Z,16.85
2023-01-04T21:17:35.556Z,16.87
2023-01-04T21:20:02.595Z,16.89
2023-01-04T21:22:29.710Z,16.90
2023-01-04T21:24:57.336Z,16.91
2023-01-04T21:27:24.465Z,16.93
2023-01-04T21:29:51.740Z,16.94
2023-01-04T21:32:18.890Z,16.95
2023-01-04T21:34:45.953Z,16.96
2023-01-04T21:37:13.081Z,16.97
2023-01-04T21:39:40.385Z,16.97
2023-01-04T21:42:07.372Z,16.97
2023-01-04T21:44:34.564Z,16.96
2023-01-04T21:47:01.644Z,16.97
2023-01-04T21:49:28.710Z,16.96
2023-01-04T21:51:55.815Z,16.96
2023-01-04T21:54:22.909Z,16.97
2023-01-04T21:56:50.601Z,16.96
2023-01-04T21:59:17.813Z,16.97
2023-01-04T22:01:45.065Z,16.97
2023-01-04T22:04:12.168Z,16.97
2023-01-04T22:06:39.443Z,16.96
2023-01-04T22:09:07.517Z,16.96
2023-01-04T22:11:34.599Z,16.96
2023-01-04T22:14:01.662Z,16.96
2023-01-04T22:16:29.930Z,16.96
2023-01-04T22:18:57.069Z,16.96
2023-01-04T22:21:24.206Z,16.96
2023-01-04T22:23:51.738Z,16.96
2023-01-04T22:26:18.781Z,16.95
2023-01-04T22:28:45.906Z,16.95
2023-01-04T22:31:13.914Z,16.96
2023-01-04T22:33:41.698Z,16.96
2023-01-04T22:36:15.442Z,16.95
2023-01-04T22:38:46.903Z,16.95
2023-01-04T22:41:16.459Z,16.94
2023-01-04T22:43:44.223Z,16.93
2023-01-04T22:46:13.764Z,16.93
2023-01-04T22:48:40.931Z,16.94
2023-01-04T22:51:08.589Z,16.93
2023-01-04T22:53:36.254Z,16.92
2023-01-04T22:56:22.081Z,16.92
2023-01-04T22:58:53.371Z,16.91
2023-01-04T23:01:22.032Z,16.90
2023-01-04T23:03:49.328Z,16.90
2023-01-04T23:06:16.461Z,16.89
2023-01-04T23:08:43.753Z,16.89
2023-01-04T23:11:13.260Z,16.89
2023-01-04T23:13:40.439Z,16.88
2023-01-04T23:16:08.250Z,16.87
2023-01-04T23:18:35.565Z,16.87
2023-01-04T23:21:03.283Z,16.87
2023-01-04T23:23:30.901Z,16.86
2023-01-04T23:26:06.512Z,16.86
2023-01-04T23:28:36.510Z,16.85
2023-01-04T23:31:04.166Z,16.85
2023-01-04T23:33:36.071Z,16.85
2023-01-04T23:36:07.120Z,16.84
2023-01-04T23:38:34.523Z,16.85
2023-01-04T23:41:01.554Z,16.83
2023-01-04T23:43:28.691Z,16.83
2023-01-04T23:45:55.700Z,16.83
2023-01-04T23:48:22.744Z,16.81
2023-01-04T23:50:53.009Z,16.79
2023-01-04T23:53:20.071Z,16.80
2023-01-04T23:55:54.832Z,16.80
2023-01-04T23:58:21.955Z,16.79
